메인 페이지
METAR-TAF:

METAR-TAF

공항 :

지부티, 지부티

위도: 11-33N, 경도: 043-10E, 고도: 49m

현재 날씨관측

예보는 1 시간 1분 전, 00:00시(UTC)에 발표되었습니다.
무풍
온도 26°C
습도 79%
기압 1015 hPa
시정 10km 이상
고도 2000ft 상공 구름 보통

METAR: HDAM 100000Z 00000KT 9999 SCT020 26/22 Q1015

시각: 04:01 (01:01 UTC)

예보

예보는 2 시간 1분 전, 23:00시(UTC)에 발표되었습니다.
예보 대상 시간: 10일 00시부터 10일 24시까지 (UTC)
여러 방향의 바람 3kt
시정 10km 이상
고도 2000ft 상공 구름 보통
전환 중
10일 06시부터 10일 12시까지 (UTC)
동남동10kt
고도 2300ft 상공 구름 조금
고도 2000ft 상공 구름 보통
전환 중
10일 12시부터 10일 15시까지 (UTC)
남남동10kt
고도 2000ft 상공 구름 보통
고도 3000ft 상공 구름 보통

TAF: HDAM 092300Z 1000/1024 VRB03KT 9999 SCT020 BECMG 1006/1012 12010KT FEW023 SCT020 BECMG 1012/1015 15010KT SCT020 SCT030

4,000개 이상의 공항 관측 자료 및 예보 (METAR 및 TAF 보고).

지도상에서 검색 가능한 기상관측소가 노란 점과 빨간 점으로 표시되어 있습니다.

기상관측소 명을 보려면 표시 위로 마우스를 이동하세요.

날씨 관측과 예보를 보려면 클릭하세요.

지도 변경 : 확대하려면 엑스 표시가 있는 녹색 버튼, 축소하려면 빼기 표시가 있는 녹색 버튼, 다음 페이지의 지도를 보려면 녹색 화살표를 클릭하세요.


METAR-TAF: